createdAt,value
2017-02-19T00:00:02.112Z,0
2017-02-19T00:01:11.221Z,0
2017-02-19T00:02:21.118Z,0
2017-02-19T00:03:30.944Z,0
2017-02-19T00:04:40.472Z,0
2017-02-19T00:05:49.699Z,0
2017-02-19T00:06:58.824Z,0
2017-02-19T00:08:07.535Z,0
2017-02-19T00:09:17.030Z,0
2017-02-19T00:10:26.562Z,0
2017-02-19T00:11:36.038Z,0
2017-02-19T00:12:44.811Z,0
2017-02-19T00:13:53.950Z,0
2017-02-19T00:15:03.402Z,0
2017-02-19T00:16:12.864Z,0
2017-02-19T00:17:21.557Z,0
2017-02-19T00:18:31.009Z,0
2017-02-19T00:19:40.830Z,0
2017-02-19T00:20:50.293Z,0
2017-02-19T00:22:00.118Z,0
2017-02-19T00:23:09.570Z,0
2017-02-19T00:24:18.244Z,0
2017-02-19T00:25:27.327Z,0
2017-02-19T00:26:36.388Z,0
2017-02-19T00:27:45.856Z,0
2017-02-19T00:28:55.300Z,0
2017-02-19T00:30:04.750Z,0
2017-02-19T00:31:14.580Z,0
2017-02-19T00:32:24.040Z,0
2017-02-19T00:33:33.491Z,0
2017-02-19T00:34:43.733Z,0
2017-02-19T00:35:53.180Z,0
2017-02-19T00:37:02.620Z,0
2017-02-19T00:38:11.338Z,0
2017-02-19T00:39:20.789Z,0
2017-02-19T00:40:29.461Z,0
2017-02-19T00:41:38.955Z,0
2017-02-19T00:42:48.443Z,0
2017-02-19T00:43:57.874Z,0
2017-02-19T00:45:06.956Z,0
2017-02-19T00:46:16.410Z,0
2017-02-19T00:47:25.474Z,0
2017-02-19T00:48:34.538Z,0
2017-02-19T00:49:44.368Z,0
2017-02-19T00:50:53.831Z,0
2017-02-19T00:52:02.898Z,0
2017-02-19T00:53:12.355Z,0
2017-02-19T00:54:21.429Z,0
2017-02-19T00:55:30.495Z,0
2017-02-19T00:56:39.576Z,0
2017-02-19T00:57:49.050Z,0
2017-02-19T00:58:58.126Z,0
2017-02-19T01:00:06.816Z,0
2017-02-19T01:01:16.297Z,0
2017-02-19T01:02:25.773Z,0
2017-02-19T01:03:34.844Z,0
2017-02-19T01:04:44.312Z,0
2017-02-19T01:05:53.775Z,0
2017-02-19T01:07:04.007Z,0
2017-02-19T01:08:13.465Z,0
2017-02-19T01:09:23.296Z,0
2017-02-19T01:10:33.909Z,0
2017-02-19T01:11:43.387Z,0
2017-02-19T01:12:53.215Z,0
2017-02-19T01:14:03.060Z,0
2017-02-19T01:15:12.889Z,0
2017-02-19T01:16:21.949Z,0
2017-02-19T01:17:31.401Z,0
2017-02-19T01:18:41.249Z,0
2017-02-19T01:19:50.308Z,0
2017-02-19T01:20:59.762Z,0
2017-02-19T01:22:08.830Z,0
2017-02-19T01:23:17.538Z,0
2017-02-19T01:24:27.017Z,0
2017-02-19T01:25:36.092Z,0
2017-02-19T01:26:44.774Z,0
2017-02-19T01:27:54.641Z,0
2017-02-19T01:29:04.081Z,0
2017-02-19T01:30:13.898Z,0
2017-02-19T01:31:23.733Z,0
2017-02-19T01:32:32.794Z,0
2017-02-19T01:33:42.227Z,0
2017-02-19T01:34:51.294Z,0
2017-02-19T01:36:01.154Z,0
2017-02-19T01:37:10.219Z,0
2017-02-19T01:38:19.668Z,0
2017-02-19T01:39:28.729Z,0
2017-02-19T01:40:37.810Z,0
2017-02-19T01:41:47.263Z,0
2017-02-19T01:42:55.945Z,0
2017-02-19T01:44:05.788Z,0
2017-02-19T01:45:15.246Z,0
2017-02-19T01:46:23.936Z,0
2017-02-19T01:47:33.035Z,0
2017-02-19T01:48:42.115Z,0
2017-02-19T01:49:51.199Z,0
2017-02-19T01:51:01.027Z,0
2017-02-19T01:52:10.104Z,0
2017-02-19T01:53:19.175Z,0
2017-02-19T01:54:28.248Z,0
2017-02-19T01:55:37.310Z,0
2017-02-19T01:56:46.364Z,0
2017-02-19T01:57:55.806Z,0
2017-02-19T01:59:04.481Z,0
2017-02-19T02:00:13.184Z,0
2017-02-19T02:01:22.637Z,0
2017-02-19T02:02:32.487Z,0
2017-02-19T02:03:41.561Z,0
2017-02-19T02:04:50.631Z,0
2017-02-19T02:06:00.476Z,0
2017-02-19T02:07:09.538Z,0
2017-02-19T02:08:18.594Z,0
2017-02-19T02:09:28.431Z,0
2017-02-19T02:10:37.503Z,0
2017-02-19T02:11:46.582Z,0
2017-02-19T02:12:56.398Z,0
2017-02-19T02:14:06.603Z,0
2017-02-19T02:15:16.441Z,0
2017-02-19T02:16:25.148Z,0
2017-02-19T02:17:34.617Z,0
2017-02-19T02:18:44.457Z,0
2017-02-19T02:19:53.905Z,0
2017-02-19T02:21:03.742Z,0
2017-02-19T02:22:13.196Z,0
2017-02-19T02:23:22.272Z,0
2017-02-19T02:24:32.098Z,0
2017-02-19T02:25:41.157Z,0
2017-02-19T02:26:50.215Z,0
2017-02-19T02:28:00.088Z,0
2017-02-19T02:29:09.532Z,0
2017-02-19T02:30:19.001Z,0
2017-02-19T02:31:28.448Z,0
2017-02-19T02:32:38.278Z,0
2017-02-19T02:33:47.741Z,0
2017-02-19T02:34:57.585Z,0
2017-02-19T02:36:07.053Z,0
2017-02-19T02:37:16.885Z,0
2017-02-19T02:38:25.955Z,0
2017-02-19T02:39:35.790Z,0
2017-02-19T02:40:44.464Z,0
2017-02-19T02:41:54.287Z,0
2017-02-19T02:43:04.129Z,0
2017-02-19T02:44:13.963Z,0
2017-02-19T02:45:23.412Z,0
2017-02-19T02:46:32.490Z,0
2017-02-19T02:47:41.608Z,0
2017-02-19T02:48:51.091Z,0
2017-02-19T02:50:00.176Z,0
2017-02-19T02:51:09.243Z,0
2017-02-19T02:52:18.683Z,0
2017-02-19T02:53:28.147Z,0
2017-02-19T02:54:37.213Z,0
2017-02-19T02:55:46.661Z,0
2017-02-19T02:56:56.128Z,0
2017-02-19T02:58:05.196Z,0
2017-02-19T02:59:14.263Z,0
2017-02-19T03:00:24.492Z,0
2017-02-19T03:01:33.557Z,0
2017-02-19T03:02:43.757Z,0
2017-02-19T03:03:52.824Z,0
2017-02-19T03:05:01.507Z,0
2017-02-19T03:06:11.339Z,0
2017-02-19T03:07:20.767Z,0
2017-02-19T03:08:29.841Z,0
2017-02-19T03:09:40.074Z,0
2017-02-19T03:10:49.148Z,0
2017-02-19T03:11:58.967Z,0
2017-02-19T03:13:08.034Z,0
2017-02-19T03:14:17.116Z,0
2017-02-19T03:15:26.568Z,0
2017-02-19T03:16:36.020Z,0
2017-02-19T03:17:45.461Z,0
2017-02-19T03:18:56.047Z,0
2017-02-19T03:20:05.894Z,0
2017-02-19T03:21:15.721Z,0
2017-02-19T03:22:24.800Z,0
2017-02-19T03:23:33.868Z,0
2017-02-19T03:24:42.943Z,0
2017-02-19T03:25:52.387Z,0
2017-02-19T03:27:02.228Z,0
2017-02-19T03:28:12.069Z,0
2017-02-19T03:29:21.159Z,0
2017-02-19T03:30:30.986Z,0
2017-02-19T03:31:40.432Z,0
2017-02-19T03:32:49.490Z,0
2017-02-19T03:33:58.930Z,0
2017-02-19T03:35:09.154Z,0
2017-02-19T03:36:18.232Z,0
2017-02-19T03:37:26.954Z,0
2017-02-19T03:38:36.402Z,0
2017-02-19T03:39:45.871Z,0
2017-02-19T03:40:54.564Z,0
2017-02-19T03:42:04.398Z,0
2017-02-19T03:43:13.470Z,0
2017-02-19T03:44:22.910Z,0
2017-02-19T03:45:31.976Z,0
2017-02-19T03:46:41.419Z,0
2017-02-19T03:47:50.869Z,0
2017-02-19T03:48:59.933Z,0
2017-02-19T03:50:09.399Z,0
2017-02-19T03:51:18.851Z,0
2017-02-19T03:52:27.936Z,0
2017-02-19T03:53:37.015Z,0
2017-02-19T03:54:46.112Z,0
2017-02-19T03:55:55.205Z,0
2017-02-19T03:57:04.283Z,0
2017-02-19T03:58:13.353Z,0
2017-02-19T03:59:22.837Z,0
2017-02-19T04:00:31.910Z,0
2017-02-19T04:01:41.361Z,0
2017-02-19T04:02:51.234Z,0
2017-02-19T04:03:59.936Z,0
2017-02-19T04:05:09.401Z,0
2017-02-19T04:06:18.454Z,0
2017-02-19T04:07:28.667Z,0
2017-02-19T04:08:38.126Z,0
2017-02-19T04:09:47.574Z,0
2017-02-19T04:10:57.400Z,0
2017-02-19T04:12:06.849Z,0
2017-02-19T04:13:16.675Z,0
2017-02-19T04:14:25.747Z,0
2017-02-19T04:15:35.613Z,0
2017-02-19T04:16:45.480Z,0
2017-02-19T04:17:54.154Z,0
2017-02-19T04:19:04.012Z,0
2017-02-19T04:20:13.452Z,0
2017-02-19T04:21:23.274Z,0
2017-02-19T04:22:32.349Z,0
2017-02-19T04:23:41.038Z,0
2017-02-19T04:24:50.883Z,0
2017-02-19T04:26:01.102Z,0
2017-02-19T04:27:09.802Z,0
2017-02-19T04:28:18.979Z,0
2017-02-19T04:29:28.428Z,0
2017-02-19T04:30:38.641Z,0
2017-02-19T04:31:47.343Z,0
2017-02-19T04:32:57.184Z,0
2017-02-19T04:34:07.408Z,0
2017-02-19T04:35:16.095Z,0
2017-02-19T04:36:25.540Z,0
2017-02-19T04:37:35.375Z,0
2017-02-19T04:38:45.203Z,0
2017-02-19T04:39:55.421Z,0
2017-02-19T04:41:05.261Z,0
2017-02-19T04:42:14.332Z,0
2017-02-19T04:43:23.418Z,0
2017-02-19T04:44:32.484Z,0
2017-02-19T04:45:41.947Z,0
2017-02-19T04:46:51.799Z,0
2017-02-19T04:48:00.887Z,0
2017-02-19T04:49:10.351Z,0
2017-02-19T04:50:19.416Z,0
2017-02-19T04:51:28.859Z,0
2017-02-19T04:52:37.542Z,0
2017-02-19T04:53:46.984Z,0
2017-02-19T04:54:57.203Z,0
2017-02-19T04:56:06.659Z,0
2017-02-19T04:57:15.730Z,0
2017-02-19T04:58:25.950Z,0
2017-02-19T04:59:35.395Z,0
2017-02-19T05:00:44.471Z,0
2017-02-19T05:01:53.147Z,0
2017-02-19T05:03:02.204Z,0
2017-02-19T05:04:11.279Z,0
2017-02-19T05:05:20.726Z,0
2017-02-19T05:06:30.547Z,0
2017-02-19T05:07:39.615Z,0
2017-02-19T05:08:48.297Z,0
2017-02-19T05:09:57.368Z,0
2017-02-19T05:11:06.447Z,0
2017-02-19T05:12:16.664Z,0
2017-02-19T05:13:26.123Z,0
2017-02-19T05:14:35.575Z,0
2017-02-19T05:15:45.025Z,0
2017-02-19T05:16:54.469Z,0
2017-02-19T05:18:03.908Z,0
2017-02-19T05:19:13.751Z,0
2017-02-19T05:20:22.804Z,0
2017-02-19T05:21:32.643Z,0
2017-02-19T05:22:41.703Z,0
2017-02-19T05:23:50.759Z,0
2017-02-19T05:24:59.832Z,0
2017-02-19T05:26:09.276Z,0
2017-02-19T05:27:18.343Z,0
2017-02-19T05:28:27.794Z,0
2017-02-19T05:29:37.231Z,0
2017-02-19T05:30:46.297Z,0
2017-02-19T05:31:55.738Z,0
2017-02-19T05:33:05.570Z,0
2017-02-19T05:34:15.769Z,0
2017-02-19T05:35:24.462Z,0
2017-02-19T05:36:34.284Z,0
2017-02-19T05:37:44.135Z,0
2017-02-19T05:38:53.602Z,0
2017-02-19T05:40:03.066Z,0
2017-02-19T05:41:12.134Z,0
2017-02-19T05:42:21.185Z,0
2017-02-19T05:43:31.028Z,0
2017-02-19T05:44:40.092Z,0
2017-02-19T05:45:49.563Z,0
2017-02-19T05:46:59.408Z,0
2017-02-19T05:48:08.479Z,0
2017-02-19T05:49:17.539Z,0
2017-02-19T05:50:26.601Z,0
2017-02-19T05:51:35.670Z,0
2017-02-19T05:52:45.146Z,0
2017-02-19T05:53:54.595Z,0
2017-02-19T05:55:04.438Z,0
2017-02-19T05:56:13.509Z,0
2017-02-19T05:57:23.348Z,0
2017-02-19T05:58:33.194Z,0
2017-02-19T05:59:42.287Z,0
2017-02-19T06:00:51.345Z,0
2017-02-19T06:02:01.173Z,0
2017-02-19T06:03:10.614Z,0
2017-02-19T06:04:19.301Z,0
2017-02-19T06:05:29.529Z,0
2017-02-19T06:06:38.589Z,4
2017-02-19T06:07:47.674Z,0
2017-02-19T06:08:56.784Z,0
2017-02-19T06:10:05.495Z,4
2017-02-19T06:11:14.571Z,4
2017-02-19T06:12:23.628Z,4
2017-02-19T06:13:33.110Z,4
2017-02-19T06:14:42.554Z,4
2017-02-19T06:15:52.013Z,12
2017-02-19T06:17:00.695Z,8
2017-02-19T06:18:10.172Z,12
2017-02-19T06:19:19.994Z,20
2017-02-19T06:20:29.085Z,24
2017-02-19T06:21:38.523Z,24
2017-02-19T06:22:47.581Z,32
2017-02-19T06:23:56.661Z,40
2017-02-19T06:25:05.715Z,48
2017-02-19T06:26:14.783Z,56
2017-02-19T06:27:24.237Z,64
2017-02-19T06:28:33.686Z,80
2017-02-19T06:29:42.759Z,96
2017-02-19T06:30:52.207Z,116
2017-02-19T06:32:02.070Z,136
2017-02-19T06:33:11.512Z,156
2017-02-19T06:34:20.956Z,188
2017-02-19T06:35:30.054Z,220
2017-02-19T06:36:39.896Z,256
2017-02-19T06:37:48.949Z,284
2017-02-19T06:38:58.781Z,316
2017-02-19T06:40:08.611Z,352
2017-02-19T06:41:18.435Z,384
2017-02-19T06:42:27.889Z,416
2017-02-19T06:43:36.954Z,464
2017-02-19T06:44:46.407Z,504
2017-02-19T06:45:55.843Z,548
2017-02-19T06:47:05.295Z,584
2017-02-19T06:48:13.991Z,628
2017-02-19T06:49:23.828Z,664
2017-02-19T06:50:33.327Z,704
2017-02-19T06:51:42.380Z,744
2017-02-19T06:52:51.064Z,808
2017-02-19T06:54:00.125Z,900
2017-02-19T06:55:09.583Z,1004
2017-02-19T06:56:18.265Z,1124
2017-02-19T06:57:28.091Z,1272
2017-02-19T06:58:37.544Z,1400
2017-02-19T06:59:46.229Z,1556
2017-02-19T07:00:55.288Z,1720
2017-02-19T07:02:05.108Z,1856
2017-02-19T07:03:14.560Z,1928
2017-02-19T07:04:23.663Z,1972
2017-02-19T07:05:32.734Z,2008
2017-02-19T07:06:42.944Z,2012
2017-02-19T07:07:51.637Z,1992
2017-02-19T07:09:01.095Z,2040
2017-02-19T07:10:10.551Z,2116
2017-02-19T07:11:19.625Z,2196
2017-02-19T07:12:29.106Z,2308
2017-02-19T07:13:38.576Z,2480
2017-02-19T07:14:47.635Z,2640
2017-02-19T07:15:56.703Z,2788
2017-02-19T07:17:06.147Z,2944
2017-02-19T07:18:15.218Z,3108
2017-02-19T07:19:24.282Z,3292
2017-02-19T07:20:33.359Z,3512
2017-02-19T07:21:42.814Z,3792
2017-02-19T07:22:52.258Z,4136
2017-02-19T07:24:01.707Z,4724
2017-02-19T07:25:10.774Z,5176
2017-02-19T07:26:20.614Z,5288
2017-02-19T07:27:30.077Z,5420
2017-02-19T07:28:39.523Z,5584
2017-02-19T07:29:49.743Z,5672
2017-02-19T07:30:58.816Z,5648
2017-02-19T07:32:08.264Z,5652
2017-02-19T07:33:17.716Z,5632
2017-02-19T07:34:27.159Z,5560
2017-02-19T07:35:36.999Z,5388
2017-02-19T07:36:46.866Z,5084
2017-02-19T07:37:56.306Z,4680
2017-02-19T07:39:06.528Z,4264
2017-02-19T07:40:15.620Z,3932
2017-02-19T07:41:24.689Z,3704
2017-02-19T07:42:33.370Z,3572
2017-02-19T07:43:43.209Z,3528
2017-02-19T07:44:52.656Z,3572
2017-02-19T07:46:02.122Z,3660
2017-02-19T07:47:11.203Z,3772
2017-02-19T07:48:20.295Z,3908
2017-02-19T07:49:29.360Z,4032
2017-02-19T07:50:38.050Z,4124
2017-02-19T07:51:47.509Z,4136
2017-02-19T07:52:56.589Z,4156
2017-02-19T07:54:06.033Z,4136
2017-02-19T07:55:15.869Z,4164
2017-02-19T07:56:25.325Z,4216
2017-02-19T07:57:34.397Z,4248
2017-02-19T07:58:43.449Z,4320
2017-02-19T07:59:52.520Z,4360
2017-02-19T08:01:01.590Z,4320
2017-02-19T08:02:10.651Z,4228
2017-02-19T08:03:19.713Z,4104
2017-02-19T08:04:28.795Z,3976
2017-02-19T08:05:38.276Z,3872
2017-02-19T08:06:47.718Z,3856
2017-02-19T08:07:57.168Z,3892
2017-02-19T08:09:06.606Z,3964
2017-02-19T08:10:16.441Z,4128
2017-02-19T08:11:25.914Z,4384
2017-02-19T08:12:35.387Z,4616
2017-02-19T08:13:44.833Z,4752
2017-02-19T08:14:53.924Z,4820
2017-02-19T08:16:02.991Z,4940
2017-02-19T08:17:12.841Z,5092
2017-02-19T08:18:21.529Z,5288
2017-02-19T08:19:30.996Z,5512
2017-02-19T08:20:40.434Z,5744
2017-02-19T08:21:49.879Z,5964
2017-02-19T08:22:59.710Z,6196
2017-02-19T08:24:09.169Z,6360
2017-02-19T08:25:18.266Z,6352
2017-02-19T08:26:27.751Z,6084
2017-02-19T08:27:36.817Z,5808
2017-02-19T08:28:46.272Z,5696
2017-02-19T08:29:56.527Z,5776
2017-02-19T08:31:06.371Z,5960
2017-02-19T08:32:15.425Z,6196
2017-02-19T08:33:25.247Z,6480
2017-02-19T08:34:35.492Z,6756
2017-02-19T08:35:44.555Z,7032
2017-02-19T08:36:54.006Z,7264
2017-02-19T08:38:03.060Z,7312
2017-02-19T08:39:12.522Z,7100
2017-02-19T08:40:21.594Z,6656
2017-02-19T08:41:31.430Z,6032
2017-02-19T08:42:40.143Z,5556
2017-02-19T08:43:49.229Z,5436
2017-02-19T08:44:58.696Z,5648
2017-02-19T08:46:08.531Z,5856
2017-02-19T08:47:17.593Z,5896
2017-02-19T08:48:27.441Z,5812
2017-02-19T08:49:37.265Z,5612
2017-02-19T08:50:46.736Z,5292
2017-02-19T08:51:56.573Z,5128
2017-02-19T08:53:06.040Z,5232
2017-02-19T08:54:16.248Z,5480
2017-02-19T08:55:25.326Z,5844
2017-02-19T08:56:34.397Z,6288
2017-02-19T08:57:43.463Z,6764
2017-02-19T08:58:52.942Z,7080
2017-02-19T09:00:02.387Z,7364
2017-02-19T09:01:12.238Z,7632
2017-02-19T09:02:21.311Z,7684
2017-02-19T09:03:30.766Z,7460
2017-02-19T09:04:39.868Z,6992
2017-02-19T09:05:49.345Z,7124
2017-02-19T09:06:58.823Z,7968
2017-02-19T09:08:07.918Z,8208
2017-02-19T09:09:17.807Z,7432
2017-02-19T09:10:27.280Z,6508
2017-02-19T09:11:37.136Z,6724
2017-02-19T09:12:46.241Z,7520
2017-02-19T09:13:55.688Z,8456
2017-02-19T09:15:05.150Z,9280
2017-02-19T09:16:15.357Z,9840
2017-02-19T09:17:24.050Z,10372
2017-02-19T09:18:33.515Z,11040
2017-02-19T09:19:42.983Z,11696
2017-02-19T09:20:52.434Z,12316
2017-02-19T09:22:01.497Z,12760
2017-02-19T09:23:10.567Z,12960
2017-02-19T09:24:20.149Z,12968
2017-02-19T09:25:30.211Z,12684
2017-02-19T09:26:39.280Z,12500
2017-02-19T09:27:48.382Z,12504
2017-02-19T09:28:57.481Z,12560
2017-02-19T09:30:06.944Z,12760
2017-02-19T09:31:16.427Z,13324
2017-02-19T09:32:25.891Z,13608
2017-02-19T09:33:35.385Z,13136
2017-02-19T09:34:44.837Z,12604
2017-02-19T09:35:54.673Z,12056
2017-02-19T09:37:03.359Z,11904
2017-02-19T09:38:13.200Z,12208
2017-02-19T09:39:22.309Z,12356
2017-02-19T09:40:32.185Z,12104
2017-02-19T09:41:41.679Z,11724
2017-02-19T09:42:50.772Z,11368
2017-02-19T09:43:59.834Z,11308
2017-02-19T09:45:09.294Z,12092
2017-02-19T09:46:18.743Z,13076
2017-02-19T09:47:28.569Z,13436
2017-02-19T09:48:38.038Z,13316
2017-02-19T09:49:47.903Z,12764
2017-02-19T09:50:57.734Z,11828
2017-02-19T09:52:06.805Z,10324
2017-02-19T09:53:16.654Z,8356
2017-02-19T09:54:25.357Z,6796
2017-02-19T09:55:34.827Z,5860
2017-02-19T09:56:44.303Z,5140
2017-02-19T09:57:53.368Z,4664
2017-02-19T09:59:03.201Z,4428
2017-02-19T10:00:12.638Z,4396
2017-02-19T10:01:22.861Z,4452
2017-02-19T10:02:32.323Z,4336
2017-02-19T10:03:41.814Z,4372
2017-02-19T10:04:50.880Z,4744
2017-02-19T10:06:00.331Z,5196
2017-02-19T10:07:09.785Z,5448
2017-02-19T10:08:18.883Z,5448
2017-02-19T10:09:28.724Z,5488
2017-02-19T10:10:38.544Z,5380
2017-02-19T10:11:47.612Z,5324
2017-02-19T10:12:56.687Z,5260
2017-02-19T10:14:06.521Z,5344
2017-02-19T10:15:15.963Z,5608
2017-02-19T10:16:25.802Z,6456
2017-02-19T10:17:35.246Z,7320
2017-02-19T10:18:44.705Z,7624
2017-02-19T10:19:54.545Z,7676
2017-02-19T10:21:04.382Z,7540
2017-02-19T10:22:13.079Z,7828
2017-02-19T10:23:22.530Z,8424
2017-02-19T10:24:31.986Z,8228
2017-02-19T10:25:41.428Z,7272
2017-02-19T10:26:50.876Z,6356
2017-02-19T10:27:59.945Z,5856
2017-02-19T10:29:09.389Z,5860
2017-02-19T10:30:19.287Z,6288
2017-02-19T10:31:29.111Z,6496
2017-02-19T10:32:38.182Z,6304
2017-02-19T10:33:48.014Z,6308
2017-02-19T10:34:57.455Z,6276
2017-02-19T10:36:06.918Z,6100
2017-02-19T10:37:16.363Z,5580
2017-02-19T10:38:25.836Z,5136
2017-02-19T10:39:34.903Z,4888
2017-02-19T10:40:44.350Z,4528
2017-02-19T10:41:54.178Z,4312
2017-02-19T10:43:03.630Z,4404
2017-02-19T10:44:12.711Z,4320
2017-02-19T10:45:22.199Z,4392
2017-02-19T10:46:31.263Z,4704
2017-02-19T10:47:41.093Z,4812
2017-02-19T10:48:50.162Z,4520
2017-02-19T10:49:58.845Z,4732
2017-02-19T10:51:08.678Z,5352
2017-02-19T10:52:18.114Z,5764
2017-02-19T10:53:28.330Z,6076
2017-02-19T10:54:37.775Z,6564
2017-02-19T10:55:47.611Z,7380
2017-02-19T10:56:56.671Z,7792
2017-02-19T10:58:06.901Z,7452
2017-02-19T10:59:15.990Z,8012
2017-02-19T11:00:24.676Z,8904
2017-02-19T11:01:34.118Z,9256
2017-02-19T11:02:43.598Z,9112
2017-02-19T11:03:52.660Z,8712
2017-02-19T11:05:02.496Z,9008
2017-02-19T11:06:11.959Z,10248
2017-02-19T11:07:21.071Z,11820
2017-02-19T11:08:29.764Z,11528
2017-02-19T11:09:38.461Z,9648
2017-02-19T11:10:47.556Z,8184
2017-02-19T11:11:56.620Z,7020
2017-02-19T11:13:06.071Z,5356
2017-02-19T11:14:15.531Z,4344
2017-02-19T11:15:24.615Z,4380
2017-02-19T11:16:33.310Z,4740
2017-02-19T11:17:42.374Z,5060
2017-02-19T11:18:51.444Z,5268
2017-02-19T11:20:00.137Z,5596
2017-02-19T11:21:09.594Z,5964
2017-02-19T11:22:19.826Z,5448
2017-02-19T11:23:29.283Z,4756
2017-02-19T11:24:38.355Z,4472
2017-02-19T11:25:47.803Z,4496
2017-02-19T11:26:56.892Z,4572
2017-02-19T11:28:06.729Z,4952
2017-02-19T11:29:16.203Z,5336
2017-02-19T11:30:25.651Z,4840
2017-02-19T11:31:35.487Z,4664
2017-02-19T11:32:44.931Z,5128
2017-02-19T11:33:54.395Z,5308
2017-02-19T11:35:03.893Z,5820
2017-02-19T11:36:12.975Z,6044
2017-02-19T11:37:22.054Z,6312
2017-02-19T11:38:32.276Z,7836
2017-02-19T11:39:41.720Z,8408
2017-02-19T11:40:51.563Z,7460
2017-02-19T11:42:01.019Z,8128
2017-02-19T11:43:10.479Z,8560
2017-02-19T11:44:19.184Z,6980
2017-02-19T11:45:28.660Z,6816
2017-02-19T11:46:37.731Z,7080
2017-02-19T11:47:46.809Z,6628
2017-02-19T11:48:55.884Z,7092
2017-02-19T11:50:05.730Z,6740
2017-02-19T11:51:15.201Z,6200
2017-02-19T11:52:23.887Z,5816
2017-02-19T11:53:33.735Z,5752
2017-02-19T11:54:43.587Z,5728
2017-02-19T11:55:52.275Z,5572
2017-02-19T11:57:01.364Z,5092
2017-02-19T11:58:10.435Z,5204
2017-02-19T11:59:19.506Z,5268
2017-02-19T12:00:28.985Z,5208
2017-02-19T12:01:38.842Z,5048
2017-02-19T12:02:48.297Z,4936
2017-02-19T12:03:57.767Z,5220
2017-02-19T12:05:07.622Z,5756
2017-02-19T12:06:16.312Z,5704
2017-02-19T12:07:25.755Z,5288
2017-02-19T12:08:35.254Z,4940
2017-02-19T12:09:44.722Z,4976
2017-02-19T12:10:54.948Z,5376
2017-02-19T12:12:04.391Z,5136
2017-02-19T12:13:13.848Z,4344
2017-02-19T12:14:22.924Z,4964
2017-02-19T12:15:32.370Z,6260
2017-02-19T12:16:41.431Z,6564
2017-02-19T12:17:50.523Z,7632
2017-02-19T12:18:59.208Z,10252
2017-02-19T12:20:08.655Z,11512
2017-02-19T12:21:17.724Z,12332
2017-02-19T12:22:27.549Z,10516
2017-02-19T12:23:37.013Z,9464
2017-02-19T12:24:45.709Z,9604
2017-02-19T12:25:55.570Z,9788
2017-02-19T12:27:04.255Z,8632
2017-02-19T12:28:12.965Z,7916
2017-02-19T12:29:22.018Z,7868
2017-02-19T12:30:31.843Z,7844
2017-02-19T12:31:40.917Z,8828
2017-02-19T12:32:49.978Z,8192
2017-02-19T12:33:59.058Z,7580
2017-02-19T12:35:08.928Z,7900
2017-02-19T12:36:17.645Z,8340
2017-02-19T12:37:26.352Z,8956
2017-02-19T12:38:36.221Z,10032
2017-02-19T12:39:45.666Z,10348
2017-02-19T12:40:55.116Z,9100
2017-02-19T12:42:04.944Z,7184
2017-02-19T12:43:14.390Z,6392
2017-02-19T12:44:23.891Z,7104
2017-02-19T12:45:32.954Z,7712
2017-02-19T12:46:42.396Z,7048
2017-02-19T12:47:52.628Z,7248
2017-02-19T12:49:02.484Z,7888
2017-02-19T12:50:12.326Z,9120
2017-02-19T12:51:22.165Z,9664
2017-02-19T12:52:31.633Z,8988
2017-02-19T12:53:40.737Z,8192
2017-02-19T12:54:50.203Z,8972
2017-02-19T12:55:59.675Z,9720
2017-02-19T12:57:08.757Z,10060
2017-02-19T12:58:17.864Z,10764
2017-02-19T12:59:27.704Z,13248
2017-02-19T13:00:37.154Z,13584
2017-02-19T13:01:47.002Z,11616
2017-02-19T13:02:56.067Z,9748
2017-02-19T13:04:05.914Z,8496
2017-02-19T13:05:14.982Z,7392
2017-02-19T13:06:24.832Z,6764
2017-02-19T13:07:33.903Z,5916
2017-02-19T13:08:42.983Z,5928
2017-02-19T13:09:52.470Z,6052
2017-02-19T13:11:01.148Z,5924
2017-02-19T13:12:10.593Z,6308
2017-02-19T13:13:19.672Z,6732
2017-02-19T13:14:28.758Z,7236
2017-02-19T13:15:38.219Z,7500
2017-02-19T13:16:48.058Z,7252
2017-02-19T13:17:57.505Z,7120
2017-02-19T13:19:06.973Z,8492
2017-02-19T13:20:16.049Z,8016
2017-02-19T13:21:25.108Z,7424
2017-02-19T13:22:34.610Z,7188
2017-02-19T13:23:43.323Z,7256
2017-02-19T13:24:53.178Z,8100
2017-02-19T13:26:02.257Z,8668
2017-02-19T13:27:11.727Z,9840
2017-02-19T13:28:20.800Z,11292
2017-02-19T13:29:30.267Z,11140
2017-02-19T13:30:39.722Z,10684
2017-02-19T13:31:48.795Z,9860
2017-02-19T13:32:57.862Z,10296
2017-02-19T13:34:06.926Z,10440
2017-02-19T13:35:15.604Z,11144
2017-02-19T13:36:25.831Z,11940
2017-02-19T13:37:34.903Z,11188
2017-02-19T13:38:43.969Z,11032
2017-02-19T13:39:53.051Z,12536
2017-02-19T13:41:02.144Z,13228
2017-02-19T13:42:11.235Z,13624
2017-02-19T13:43:19.917Z,12388
2017-02-19T13:44:28.605Z,11868
2017-02-19T13:45:38.048Z,11936
2017-02-19T13:46:46.742Z,12972
2017-02-19T13:47:56.204Z,14196
2017-02-19T13:49:05.676Z,11608
2017-02-19T13:50:15.137Z,10076
2017-02-19T13:51:25.402Z,10100
2017-02-19T13:52:34.873Z,9616
2017-02-19T13:53:44.334Z,10636
2017-02-19T13:54:53.782Z,10308
2017-02-19T13:56:03.276Z,9512
2017-02-19T13:57:12.727Z,8596
2017-02-19T13:58:21.801Z,8796
2017-02-19T13:59:31.313Z,8756
2017-02-19T14:00:40.762Z,8792
2017-02-19T14:01:50.225Z,7964
2017-02-19T14:03:00.435Z,7184
2017-02-19T14:04:09.515Z,6956
2017-02-19T14:05:18.574Z,6720
2017-02-19T14:06:27.650Z,6892
2017-02-19T14:07:36.734Z,6556
2017-02-19T14:08:46.209Z,6228
2017-02-19T14:09:56.072Z,6452
2017-02-19T14:11:05.524Z,6668
2017-02-19T14:12:14.223Z,6852
2017-02-19T14:13:22.933Z,6796
2017-02-19T14:14:31.991Z,5688
2017-02-19T14:15:41.052Z,5760
2017-02-19T14:16:49.756Z,5588
2017-02-19T14:17:59.592Z,5792
2017-02-19T14:19:08.686Z,5948
2017-02-19T14:20:17.382Z,5796
2017-02-19T14:21:26.465Z,5516
2017-02-19T14:22:35.939Z,5124
2017-02-19T14:23:45.396Z,4792
2017-02-19T14:24:54.856Z,4836
2017-02-19T14:26:03.948Z,5172
2017-02-19T14:27:13.396Z,5164
2017-02-19T14:28:23.245Z,5952
2017-02-19T14:29:32.327Z,6148
2017-02-19T14:30:41.002Z,6812
2017-02-19T14:31:50.465Z,6932
2017-02-19T14:32:59.917Z,7664
2017-02-19T14:34:09.387Z,7136
2017-02-19T14:35:18.476Z,6140
2017-02-19T14:36:28.321Z,5524
2017-02-19T14:37:37.410Z,5252
2017-02-19T14:38:46.509Z,5260
2017-02-19T14:39:55.582Z,5628
2017-02-19T14:41:05.039Z,6532
2017-02-19T14:42:14.495Z,6804
2017-02-19T14:43:23.582Z,7036
2017-02-19T14:44:32.267Z,6920
2017-02-19T14:45:41.722Z,6588
2017-02-19T14:46:51.172Z,6808
2017-02-19T14:48:00.619Z,6732
2017-02-19T14:49:10.086Z,6660
2017-02-19T14:50:19.917Z,5856
2017-02-19T14:51:28.993Z,4888
2017-02-19T14:52:38.124Z,4548
2017-02-19T14:53:47.211Z,4736
2017-02-19T14:54:55.904Z,4468
2017-02-19T14:56:05.375Z,4140
2017-02-19T14:57:14.812Z,4032
2017-02-19T14:58:24.267Z,4168
2017-02-19T14:59:32.959Z,4376
2017-02-19T15:00:42.786Z,4616
2017-02-19T15:01:51.484Z,4628
2017-02-19T15:03:00.563Z,5452
2017-02-19T15:04:10.045Z,5256
2017-02-19T15:05:19.115Z,5312
2017-02-19T15:06:28.577Z,5180
2017-02-19T15:07:37.636Z,4892
2017-02-19T15:08:46.716Z,4736
2017-02-19T15:09:56.195Z,4876
2017-02-19T15:11:05.256Z,4476
2017-02-19T15:12:14.335Z,4332
2017-02-19T15:13:23.791Z,4444
2017-02-19T15:14:33.230Z,4220
2017-02-19T15:15:41.940Z,4084
2017-02-19T15:16:51.016Z,3828
2017-02-19T15:18:01.244Z,3576
2017-02-19T15:19:10.718Z,3380
2017-02-19T15:20:20.944Z,3368
2017-02-19T15:21:30.016Z,3556
2017-02-19T15:22:39.468Z,3920
2017-02-19T15:23:48.957Z,4132
2017-02-19T15:24:58.801Z,3976
2017-02-19T15:26:08.267Z,3792
2017-02-19T15:27:18.098Z,3964
2017-02-19T15:28:27.575Z,3364
2017-02-19T15:29:37.034Z,3264
2017-02-19T15:30:46.874Z,3304
2017-02-19T15:31:55.951Z,3056
2017-02-19T15:33:04.652Z,2840
2017-02-19T15:34:13.340Z,2916
2017-02-19T15:35:22.442Z,3032
2017-02-19T15:36:31.933Z,3040
2017-02-19T15:37:41.400Z,3380
2017-02-19T15:38:50.476Z,3220
2017-02-19T15:40:00.691Z,2924
2017-02-19T15:41:10.514Z,2696
2017-02-19T15:42:19.627Z,2876
2017-02-19T15:43:29.466Z,2892
2017-02-19T15:44:38.527Z,2516
2017-02-19T15:45:47.580Z,2296
2017-02-19T15:46:56.650Z,2320
2017-02-19T15:48:05.754Z,2212
2017-02-19T15:49:14.827Z,2136
2017-02-19T15:50:23.902Z,2040
2017-02-19T15:51:33.376Z,1920
2017-02-19T15:52:42.481Z,1716
2017-02-19T15:53:52.311Z,1752
2017-02-19T15:55:01.414Z,1572
2017-02-19T15:56:10.881Z,1464
2017-02-19T15:57:19.571Z,1500
2017-02-19T15:58:29.016Z,1572
2017-02-19T15:59:37.722Z,1364